Time;durP1;ratioP1;P1;durP2;ratioP2;P2;SDS_P1;SDS_P2;PMS_P1;PMS_P2;Temp;Humidity;BMP_temperature;BMP_pressure;BME280_temperature;BME280_humidity;BME280_pressure;Samples;Min_cycle;Max_cycle;Signal;HPM_P1;HPM_P2
2023/04/25 00:01:14;;;;;;;1.20;0.40;;;;;;;8.67;59.28;100173.66;15539459;28;20052;-56
2023/04/25 00:08:49;;;;;;;0.63;0.37;;;;;;;8.73;59.58;100173.84;15554238;28;20058;-50
2023/04/25 00:16:23;;;;;;;0.40;0.25;;;;;;;8.76;59.57;100179.56;15528601;28;20129;-52
2023/04/25 00:23:58;;;;;;;2.58;0.47;;;;;;;8.78;60.05;100179.38;15520903;28;20064;-51
2023/04/25 00:31:31;;;;;;;3.75;0.65;;;;;;;8.84;60.57;100178.50;15553938;28;20186;-50
2023/04/25 00:39:06;;;;;;;1.98;1.17;;;;;;;8.95;60.29;100177.84;15553675;28;20444;-53
2023/04/25 00:46:40;;;;;;;0.13;0.13;;;;;;;8.78;61.06;100174.00;15538447;28;20108;-49
2023/04/25 00:54:15;;;;;;;1.42;0.90;;;;;;;8.62;61.10;100172.63;15554002;28;20057;-56
2023/04/25 01:01:48;;;;;;;1.05;0.95;;;;;;;9.09;60.25;100168.72;15535885;28;20129;-52
2023/04/25 01:09:23;;;;;;;5.43;0.47;;;;;;;8.75;60.98;100155.69;15552417;28;20380;-55
2023/04/25 01:16:56;;;;;;;0.28;0.28;;;;;;;8.77;60.52;100159.00;15550708;28;20245;-55
2023/04/25 01:24:32;;;;;;;5.22;0.70;;;;;;;8.33;61.64;100152.53;15550347;28;20099;-51
2023/04/25 01:32:06;;;;;;;0.90;0.25;;;;;;;8.79;60.83;100148.91;15534636;28;20108;-51
2023/04/25 01:39:41;;;;;;;1.55;0.45;;;;;;;8.84;60.75;100152.56;15546695;28;20050;-50
2023/04/25 01:47:15;;;;;;;1.33;0.43;;;;;;;8.43;61.56;100152.94;15521570;28;20438;-48
2023/04/25 01:54:52;;;;;;;0.82;0.45;;;;;;;8.55;60.87;100147.75;15524687;28;20402;-53
2023/04/25 02:02:26;;;;;;;1.35;0.50;;;;;;;8.47;61.57;100150.66;15548475;28;20578;-53
2023/04/25 02:10:01;;;;;;;13.20;0.70;;;;;;;8.54;61.23;100154.16;15564519;28;20058;-55
2023/04/25 02:17:39;;;;;;;2.50;1.02;;;;;;;8.45;61.15;100156.22;15531396;28;20141;-50
2023/04/25 02:25:15;;;;;;;4.00;1.23;;;;;;;8.38;61.56;100153.56;15548494;28;20054;-50
2023/04/25 02:32:49;;;;;;;0.30;0.30;;;;;;;8.30;62.04;100143.09;15563524;28;20158;-53
2023/04/25 02:40:23;;;;;;;1.25;0.75;;;;;;;8.28;61.79;100149.66;15563853;28;20459;-52
2023/04/25 02:47:56;;;;;;;3.72;0.98;;;;;;;8.16;62.22;100139.63;15528274;28;20388;-50
2023/04/25 02:55:34;;;;;;;1.80;0.85;;;;;;;8.33;61.85;100137.28;15554593;28;20054;-51
2023/04/25 03:03:28;;;;;;;1.05;0.73;;;;;;;8.39;62.04;100138.34;15508926;28;20141;-51
2023/04/25 03:11:02;;;;;;;1.83;1.20;;;;;;;8.46;61.83;100141.81;15559043;28;20034;-51
2023/04/25 03:18:38;;;;;;;10.52;0.80;;;;;;;8.37;62.03;100143.09;15558267;28;20038;-51
2023/04/25 03:26:12;;;;;;;0.63;0.60;;;;;;;7.95;62.55;100106.97;15558787;28;20050;-51
2023/04/25 03:33:47;;;;;;;8.15;0.45;;;;;;;8.38;61.79;100142.88;15527002;28;20300;-54
2023/04/25 03:41:22;;;;;;;1.15;0.57;;;;;;;7.97;63.42;100139.63;15543872;28;20073;-51
2023/04/25 03:49:00;;;;;;;0.30;0.30;;;;;;;8.16;62.38;100152.16;15542065;28;20062;-54
2023/04/25 03:56:45;;;;;;;0.73;0.70;;;;;;;8.20;62.91;100164.06;15540434;28;20654;-51
2023/04/25 04:04:25;;;;;;;1.13;0.90;;;;;;;8.02;62.91;100147.84;15524607;28;20041;-51
2023/04/25 04:12:01;;;;;;;1.42;0.60;;;;;;;8.45;62.29;100166.94;15538690;28;20057;-51
2023/04/25 04:19:36;;;;;;;6.13;1.00;;;;;;;8.22;63.59;100175.38;15540462;28;20037;-53
2023/04/25 04:27:19;;;;;;;0.55;0.30;;;;;;;8.52;62.11;100177.59;15608594;23;20518;-50
2023/04/25 04:35:23;;;;;;;1.25;0.68;;;;;;;8.63;61.73;100177.78;15572906;28;20152;-52
2023/04/25 04:42:59;;;;;;;4.15;0.85;;;;;;;8.75;61.50;100177.09;15568338;28;20056;-51
2023/04/25 04:50:58;;;;;;;3.80;1.55;;;;;;;8.33;62.95;100201.47;15537922;28;20042;-49
2023/04/25 04:58:51;;;;;;;1.88;0.45;;;;;;;8.37;63.28;100185.88;15521921;28;20058;-51
2023/04/25 05:06:36;;;;;;;0.47;0.40;;;;;;;8.25;63.73;100200.88;15546047;28;20459;-52
2023/04/25 05:14:23;;;;;;;1.33;0.98;;;;;;;8.29;63.63;100205.59;15545925;28;20108;-52
2023/04/25 05:22:16;;;;;;;6.03;0.85;;;;;;;8.41;63.39;100208.50;15531584;28;20061;-50
2023/04/25 05:30:18;;;;;;;2.85;0.73;;;;;;;8.42;63.96;100205.59;15555497;28;20190;-51
2023/04/25 05:38:05;;;;;;;1.40;1.00;;;;;;;8.27;64.41;100207.66;15539689;28;20042;-51
2023/04/25 05:45:58;;;;;;;1.25;0.93;;;;;;;8.45;63.62;100209.72;15560418;28;20454;-52
2023/04/25 05:53:48;;;;;;;1.13;0.82;;;;;;;8.89;63.27;100216.16;15548881;28;20037;-53
2023/04/25 06:01:23;;;;;;;0.55;0.40;;;;;;;8.69;63.19;100226.94;15534187;28;20099;-49
2023/04/25 06:08:57;;;;;;;2.95;1.25;;;;;;;8.83;63.18;100217.03;15522072;28;20418;-49
2023/04/25 06:16:32;;;;;;;2.38;1.27;;;;;;;8.93;62.35;100228.09;15530021;28;20145;-51
2023/04/25 06:24:05;;;;;;;0.85;0.52;;;;;;;9.15;62.37;100237.47;15529040;28;20046;-51
2023/04/25 06:31:40;;;;;;;2.35;1.33;;;;;;;8.89;62.67;100235.72;15524094;28;20140;-51
2023/04/25 06:39:13;;;;;;;2.25;1.27;;;;;;;9.19;61.81;100241.38;15522132;28;20128;-49
2023/04/25 06:46:47;;;;;;;1.00;0.57;;;;;;;9.28;61.86;100247.31;15547381;28;20133;-52
2023/04/25 06:54:21;;;;;;;0.80;0.65;;;;;;;9.01;62.80;100251.94;15541780;28;20045;-49
2023/04/25 07:02:07;;;;;;;1.83;0.73;;;;;;;8.78;62.96;100249.75;15527526;28;20092;-52
2023/04/25 07:09:40;;;;;;;1.48;0.60;;;;;;;8.56;64.50;100249.19;15552263;28;20566;-51
2023/04/25 07:17:15;;;;;;;3.33;0.67;;;;;;;8.80;64.28;100265.59;15531348;28;20064;-54
2023/04/25 07:24:50;;;;;;;0.52;0.52;;;;;;;8.49;65.50;100290.38;15540843;28;20296;-50
2023/04/25 07:32:28;;;;;;;0.70;0.43;;;;;;;8.16;65.83;100283.97;15533519;28;20177;-51
2023/04/25 07:40:03;;;;;;;5.57;1.77;;;;;;;8.57;64.08;100290.94;15565190;28;20053;-54
2023/04/25 07:47:38;;;;;;;0.57;0.35;;;;;;;8.73;62.60;100296.91;15593590;28;20099;-52
2023/04/25 07:55:14;;;;;;;2.28;1.02;;;;;;;8.86;61.98;100305.75;15589803;28;20057;-54
2023/04/25 08:02:57;;;;;;;14.23;0.95;;;;;;;8.69;62.51;100316.06;15541599;28;20049;-50
2023/04/25 08:10:30;;;;;;;10.65;0.77;;;;;;;9.12;61.91;100317.38;15539271;28;20034;-52
2023/04/25 08:18:05;;;;;;;0.60;0.32;;;;;;;9.43;61.20;100333.56;15540434;28;20046;-51
2023/04/25 08:25:38;;;;;;;1.00;0.68;;;;;;;9.19;61.37;100342.31;15500602;28;20415;-53
2023/04/25 08:33:14;;;;;;;3.22;0.65;;;;;;;10.11;58.32;100345.53;15543971;28;20040;-53
2023/04/25 08:40:51;;;;;;;2.50;0.65;;;;;;;10.33;55.18;100351.41;15601315;28;20041;-51
2023/04/25 08:48:28;;;;;;;1.15;0.73;;;;;;;10.02;53.88;100371.78;15584813;28;20052;-50
2023/04/25 08:56:05;;;;;;;4.22;0.80;;;;;;;10.73;49.86;100376.88;15558093;28;20055;-52
2023/04/25 09:03:44;;;;;;;0.70;0.20;;;;;;;11.26;47.02;100366.66;15518092;28;20515;-49
2023/04/25 09:11:19;;;;;;;0.55;0.55;;;;;;;12.84;45.00;100368.16;15571820;28;20064;-53
2023/04/25 09:18:54;;;;;;;0.90;0.30;;;;;;;12.17;44.15;100385.38;15517800;28;20068;-54
2023/04/25 09:26:27;;;;;;;10.68;1.73;;;;;;;11.48;45.75;100392.84;15580027;28;20076;-50
2023/04/25 09:34:02;;;;;;;1.10;0.57;;;;;;;11.71;45.48;100396.72;15553559;28;20052;-55
2023/04/25 09:41:40;;;;;;;2.15;0.50;;;;;;;12.95;43.04;100396.94;15508462;28;20050;-52
2023/04/25 09:49:15;;;;;;;1.58;0.47;;;;;;;12.19;45.49;100406.66;15518903;28;20042;-53
2023/04/25 09:57:07;;;;;;;1.85;0.80;;;;;;;11.71;43.39;100413.66;15550900;28;20057;-52
2023/04/25 10:04:42;;;;;;;0.73;0.55;;;;;;;11.77;41.66;100411.94;15510895;28;20054;-53
2023/04/25 10:12:24;;;;;;;3.30;0.88;;;;;;;11.39;42.63;100418.38;15531175;28;20038;-53
2023/04/25 10:19:59;;;;;;;;;;;;;;;11.63;41.68;100418.53;15595011;28;20107;-50
2023/04/25 10:27:33;;;;;;;0.45;0.40;;;;;;;11.43;43.27;100427.66;15582927;23;19925;-71
2023/04/25 10:35:16;;;;;;;1.15;0.75;;;;;;;11.74;41.54;100434.72;15616353;28;20320;-70
2023/04/25 10:42:49;;;;;;;0.32;0.20;;;;;;;12.20;42.71;100437.88;15621845;28;20512;-72
2023/04/25 10:50:39;;;;;;;1.07;0.60;;;;;;;11.57;42.42;100447.13;15658041;28;20460;-72
2023/04/25 10:58:12;;;;;;;11.70;1.20;;;;;;;10.96;43.79;100454.13;15594260;28;20292;-72
2023/04/25 11:05:49;;;;;;;0.60;0.30;;;;;;;10.96;42.85;100467.56;15635718;28;20356;-72
2023/04/25 11:13:22;;;;;;;1.63;0.93;;;;;;;10.82;43.07;100462.50;15637153;28;20064;-73
2023/04/25 11:20:57;;;;;;;4.15;0.85;;;;;;;10.74;42.88;100471.66;15622374;28;20049;-73
2023/04/25 11:28:31;;;;;;;1.38;0.40;;;;;;;10.71;42.57;100486.31;15633149;28;20429;-72
2023/04/25 11:36:06;;;;;;;0.45;0.20;;;;;;;10.36;43.14;100494.00;15615519;28;20454;-71
2023/04/25 11:43:39;;;;;;;0.50;0.32;;;;;;;10.19;41.83;100488.25;15612345;28;20051;-71
2023/04/25 11:51:13;;;;;;;0.30;0.20;;;;;;;10.41;42.09;100506.75;15625906;28;20045;-71
2023/04/25 11:59:00;;;;;;;2.03;0.98;;;;;;;10.74;41.03;100509.25;15630818;28;20304;-73
2023/04/25 12:06:38;;;;;;;1.10;0.40;;;;;;;10.17;42.67;100509.13;15669046;28;20386;-73
2023/04/25 12:14:12;;;;;;;0.63;0.43;;;;;;;10.35;41.25;100513.81;15660626;28;20460;-72
2023/04/25 12:21:47;;;;;;;0.63;0.30;;;;;;;10.60;40.21;100515.75;15611608;28;20065;-70
2023/04/25 12:29:21;;;;;;;0.68;0.40;;;;;;;10.70;38.79;100521.44;15633907;28;20048;-71
2023/04/25 12:36:56;;;;;;;2.00;0.47;;;;;;;11.28;38.89;100521.19;15622190;28;20042;-71
2023/04/25 12:44:30;;;;;;;8.30;0.80;;;;;;;11.34;39.47;100530.28;15654897;28;20053;-70
2023/04/25 12:52:04;;;;;;;0.25;0.20;;;;;;;10.99;39.59;100538.81;15608225;28;20050;-70
2023/04/25 12:59:37;;;;;;;0.10;0.10;;;;;;;11.11;41.04;100542.44;15618367;28;20056;-69
2023/04/25 13:07:12;;;;;;;2.07;0.37;;;;;;;11.09;40.30;100533.75;15635381;28;20053;-70
2023/04/25 13:14:45;;;;;;;4.25;0.65;;;;;;;10.41;40.78;100536.28;15639733;28;20057;-71
2023/04/25 13:22:20;;;;;;;0.83;0.47;;;;;;;11.13;40.24;100545.72;15636912;28;20037;-71
2023/04/25 13:29:53;;;;;;;1.20;0.30;;;;;;;12.36;38.42;100536.84;15621861;28;20310;-70
2023/04/25 13:37:27;;;;;;;6.43;3.50;;;;;;;12.40;36.88;100553.34;15623741;28;20045;-71
2023/04/25 13:45:00;;;;;;;15.32;1.98;;;;;;;11.36;39.41;100547.81;15609592;28;20127;-70
2023/04/25 13:52:35;;;;;;;0.57;0.55;;;;;;;10.82;38.90;100557.31;15587171;28;20128;-70
2023/04/25 14:00:09;;;;;;;1.63;0.82;;;;;;;10.82;40.42;100573.44;15632461;28;20061;-72
2023/04/25 14:07:44;;;;;;;0.30;0.30;;;;;;;10.38;41.94;100575.06;15624814;28;20041;-71
2023/04/25 14:15:17;;;;;;;5.47;0.30;;;;;;;10.81;41.89;100587.03;15601105;28;20049;-69
2023/04/25 14:22:54;;;;;;;1.08;0.50;;;;;;;10.27;43.50;100599.91;15601570;28;20045;-72
2023/04/25 14:30:27;;;;;;;0.43;0.17;;;;;;;9.87;44.04;100604.50;15610537;28;20421;-71
2023/04/25 14:38:01;;;;;;;1.40;1.00;;;;;;;10.05;44.30;100603.84;15612412;28;20068;-71
2023/04/25 14:45:35;;;;;;;1.10;0.75;;;;;;;10.32;44.30;100601.94;15620523;28;20581;-71
2023/04/25 14:53:09;;;;;;;;;;;;;;;11.24;42.45;100595.25;15631983;28;20036;-71
2023/04/25 15:00:43;;;;;;;5.28;0.63;;;;;;;10.90;42.57;100612.59;15636315;28;19974;-72
2023/04/25 15:08:17;;;;;;;3.60;0.75;;;;;;;10.26;43.37;100619.72;15629384;28;20065;-71
2023/04/25 15:15:53;;;;;;;0.30;0.25;;;;;;;10.68;43.41;100609.44;15598070;28;20037;-72
2023/04/25 15:23:28;;;;;;;0.30;0.30;;;;;;;10.69;44.42;100608.41;15630062;28;20045;-72
2023/04/25 15:31:02;;;;;;;0.20;0.05;;;;;;;10.25;44.29;100615.38;15624762;28;20052;-71
2023/04/25 15:38:37;;;;;;;0.10;0.10;;;;;;;10.70;43.88;100626.97;15608344;28;20525;-72
2023/04/25 15:46:10;;;;;;;0.32;0.32;;;;;;;10.57;43.98;100629.69;15596147;23;20314;-50
2023/04/25 15:53:45;;;;;;;0.15;0.15;;;;;;;10.36;44.02;100638.88;15507276;28;20030;-47
2023/04/25 16:01:22;;;;;;;0.77;0.40;;;;;;;10.67;43.89;100627.38;15560834;28;20033;-49
2023/04/25 16:08:57;;;;;;;0.32;0.20;;;;;;;9.79;45.66;100637.72;15559661;28;20446;-51
2023/04/25 16:16:30;;;;;;;0.30;0.13;;;;;;;9.96;44.71;100636.25;15559323;28;20498;-49
2023/04/25 16:24:05;;;;;;;1.13;0.50;;;;;;;10.05;44.79;100646.75;15559492;28;20048;-51
2023/04/25 16:31:38;;;;;;;1.55;0.73;;;;;;;9.75;46.36;100660.59;15558541;28;20100;-50
2023/04/25 16:39:13;;;;;;;2.23;0.67;;;;;;;8.81;51.56;100665.97;15558596;28;20122;-49
2023/04/25 16:46:47;;;;;;;1.02;0.30;;;;;;;8.69;51.76;100665.75;15557718;28;20116;-48
2023/04/25 16:54:24;;;;;;;0.03;0.03;;;;;;;8.57;51.54;100657.47;15557227;28;20076;-51
2023/04/25 17:01:57;;;;;;;5.95;0.57;;;;;;;8.90;49.44;100668.28;15560172;28;20052;-50
2023/04/25 17:09:31;;;;;;;7.33;0.40;;;;;;;9.12;48.17;100666.28;15556070;28;20564;-48
2023/04/25 17:17:04;;;;;;;1.35;0.10;;;;;;;8.80;47.93;100667.84;15554319;28;20494;-50
2023/04/25 17:24:39;;;;;;;0.20;0.03;;;;;;;9.32;47.01;100670.84;15553849;28;20120;-49
2023/04/25 17:32:12;;;;;;;0.38;0.30;;;;;;;8.86;47.49;100677.75;15554977;28;20687;-50
2023/04/25 17:39:47;;;;;;;1.40;0.70;;;;;;;9.08;47.54;100683.78;15515519;28;20084;-51
2023/04/25 17:47:19;;;;;;;0.13;0.05;;;;;;;8.48;48.62;100684.56;15538143;28;20046;-51
2023/04/25 17:54:54;;;;;;;0.27;0.20;;;;;;;8.50;48.96;100690.56;15543015;28;20033;-50
2023/04/25 18:02:27;;;;;;;0.00;0.00;;;;;;;8.56;49.30;100695.94;15554422;28;20042;-51
2023/04/25 18:10:04;;;;;;;0.83;0.40;;;;;;;8.59;49.51;100702.75;15535310;28;20045;-51
2023/04/25 18:17:39;;;;;;;0.05;0.05;;;;;;;8.87;49.45;100705.34;15535281;28;20056;-48
2023/04/25 18:25:14;;;;;;;0.03;0.03;;;;;;;8.56;50.51;100722.69;15535808;28;20124;-51
2023/04/25 18:32:47;;;;;;;0.57;0.28;;;;;;;8.78;50.40;100728.78;15534233;28;20133;-51
2023/04/25 18:40:21;;;;;;;0.00;0.00;;;;;;;8.13;52.21;100738.03;15534083;28;20144;-49
2023/04/25 18:47:55;;;;;;;0.40;0.40;;;;;;;8.38;51.41;100747.28;15533446;28;20486;-50
2023/04/25 18:55:29;;;;;;;0.10;0.10;;;;;;;8.54;49.78;100761.38;15533448;28;20061;-52
2023/04/25 19:03:03;;;;;;;0.00;0.00;;;;;;;8.72;49.59;100771.53;15551744;28;20155;-51
2023/04/25 19:10:37;;;;;;;0.65;0.47;;;;;;;8.27;49.98;100787.91;15532679;28;20060;-51
2023/04/25 19:18:10;;;;;;;0.00;0.00;;;;;;;8.38;49.96;100790.06;15532722;28;20304;-52
2023/04/25 19:25:45;;;;;;;0.10;0.10;;;;;;;8.20;50.90;100792.34;15550416;28;20112;-48
2023/04/25 19:33:19;;;;;;;0.10;0.10;;;;;;;8.05;51.01;100794.28;15549484;28;20515;-51
2023/04/25 19:40:53;;;;;;;;;;;;;;;7.83;52.43;100794.31;15556932;28;20415;-51
2023/04/25 19:48:26;;;;;;;0.30;0.13;;;;;;;7.89;52.25;100801.56;15558782;28;19976;-52
2023/04/25 19:56:01;;;;;;;0.00;0.00;;;;;;;7.30;53.94;100811.59;15558806;28;20045;-50
2023/04/25 20:03:34;;;;;;;0.55;0.55;;;;;;;7.92;52.55;100813.69;15541175;28;20081;-50
2023/04/25 20:11:08;;;;;;;4.70;0.33;;;;;;;7.82;53.55;100811.34;15552214;28;20042;-49
2023/04/25 20:18:41;;;;;;;1.23;0.28;;;;;;;7.85;53.53;100810.16;15540024;28;20558;-53
2023/04/25 20:26:15;;;;;;;0.87;0.30;;;;;;;7.68;53.85;100815.72;15557452;28;20045;-51
2023/04/25 20:33:49;;;;;;;0.00;0.00;;;;;;;7.05;55.29;100808.41;15558321;28;20046;-51
2023/04/25 20:41:24;;;;;;;0.20;0.20;;;;;;;6.32;56.20;100826.84;15557213;28;20042;-49
2023/04/25 20:48:57;;;;;;;0.73;0.28;;;;;;;6.64;56.65;100833.69;15556206;28;20482;-50
2023/04/25 20:56:34;;;;;;;0.10;0.10;;;;;;;6.83;55.86;100839.50;15554261;28;20515;-49
2023/04/25 21:04:07;;;;;;;0.25;0.20;;;;;;;6.79;55.70;100831.03;15556041;28;20046;-50
2023/04/25 21:11:42;;;;;;;0.20;0.15;;;;;;;6.94;55.61;100841.72;15555365;28;20046;-49
2023/04/25 21:19:15;;;;;;;2.85;0.47;;;;;;;7.27;55.51;100841.31;15556759;28;20391;-51
2023/04/25 21:26:49;;;;;;;0.45;0.30;;;;;;;6.95;57.26;100843.41;15539446;28;20038;-54
2023/04/25 21:34:22;;;;;;;0.40;0.30;;;;;;;6.62;57.17;100851.72;15555560;28;20046;-49
2023/04/25 21:42:01;;;;;;;0.22;0.10;;;;;;;6.37;57.49;100868.94;15537122;28;20394;-49
2023/04/25 21:49:35;;;;;;;1.10;0.60;;;;;;;6.20;56.73;100868.28;15536922;28;20109;-54
2023/04/25 21:57:09;;;;;;;0.40;0.40;;;;;;;6.28;56.60;100870.84;15537156;28;20049;-53
2023/04/25 22:04:45;;;;;;;0.10;0.10;;;;;;;6.24;56.55;100888.19;15552908;28;20096;-51
2023/04/25 22:12:22;;;;;;;0.10;0.10;;;;;;;6.14;56.94;100893.78;15552750;28;20061;-52
2023/04/25 22:19:55;;;;;;;0.30;0.30;;;;;;;5.89;57.76;100901.06;15534019;28;20046;-50
2023/04/25 22:27:30;;;;;;;0.00;0.00;;;;;;;6.33;56.28;100911.13;15552147;28;20391;-49
2023/04/25 22:35:03;;;;;;;0.75;0.30;;;;;;;5.40;59.57;100923.59;15552094;28;20387;-53
2023/04/25 22:42:39;;;;;;;0.17;0.17;;;;;;;5.46;59.06;100928.25;15560183;28;20050;-51
2023/04/25 22:50:15;;;;;;;0.13;0.13;;;;;;;5.23;59.48;100930.81;15550898;28;20414;-54
2023/04/25 22:57:49;;;;;;;1.13;0.43;;;;;;;5.50;58.53;100932.22;15532502;28;20057;-51
2023/04/25 23:05:23;;;;;;;0.20;0.20;;;;;;;5.15;59.93;100937.00;15533460;28;20570;-51
2023/04/25 23:12:59;;;;;;;6.78;0.55;;;;;;;5.31;58.64;100938.75;15554660;28;20450;-49
2023/04/25 23:20:32;;;;;;;0.15;0.15;;;;;;;5.06;59.46;100944.16;15545200;28;20681;-55
2023/04/25 23:28:07;;;;;;;0.23;0.20;;;;;;;5.24;58.93;100948.44;15563045;28;20133;-50
2023/04/25 23:35:40;;;;;;;11.60;0.90;;;;;;;5.07;59.29;100955.63;15523671;28;20304;-53
2023/04/25 23:43:15;;;;;;;0.25;0.17;;;;;;;4.81;60.16;100953.19;15576596;28;20061;-50
2023/04/25 23:50:48;;;;;;;0.22;0.22;;;;;;;4.84;59.55;100964.28;15522601;28;20578;-50
2023/04/25 23:58:22;;;;;;;0.00;0.00;;;;;;;4.88;60.36;100972.78;15519981;28;20137;-55
